createdAt,value
2023-03-18T00:01:08.829Z,14.77
2023-03-18T00:04:11.416Z,14.20
2023-03-18T00:07:14.609Z,15.02
2023-03-18T00:10:18.114Z,14.07
2023-03-18T00:13:20.554Z,15.83
2023-03-18T00:16:23.557Z,16.00
2023-03-18T00:19:26.070Z,13.85
2023-03-18T00:22:28.566Z,14.27
2023-03-18T00:25:31.108Z,11.82
2023-03-18T00:28:33.791Z,12.18
2023-03-18T00:31:39.064Z,12.77
2023-03-18T00:34:41.946Z,14.87
2023-03-18T00:37:45.387Z,15.93
2023-03-18T00:41:11.073Z,11.95
2023-03-18T00:44:14.924Z,13.50
2023-03-18T00:47:17.716Z,13.35
2023-03-18T00:50:20.360Z,13.57
2023-03-18T00:53:25.134Z,12.07
2023-03-18T00:56:32.150Z,14.87
2023-03-18T00:59:35.756Z,12.02
2023-03-18T01:02:38.596Z,13.95
2023-03-18T01:05:41.276Z,13.45
2023-03-18T01:08:45.533Z,14.77
2023-03-18T01:11:47.959Z,14.73
2023-03-18T01:14:50.454Z,18.33
2023-03-18T01:17:57.012Z,19.00
2023-03-18T01:21:00.358Z,16.50
2023-03-18T01:24:05.595Z,17.17
2023-03-18T01:27:09.783Z,15.23
2023-03-18T01:30:14.427Z,20.20
2023-03-18T01:33:17.894Z,22.77
2023-03-18T01:36:20.505Z,21.98
2023-03-18T01:39:37.173Z,23.17
2023-03-18T01:42:47.367Z,19.63
2023-03-18T01:45:53.795Z,22.97
2023-03-18T01:48:57.165Z,24.85
2023-03-18T01:52:12.815Z,21.27
2023-03-18T01:55:19.396Z,20.23
2023-03-18T01:58:27.566Z,19.27
2023-03-18T02:01:49.607Z,20.17
2023-03-18T02:04:59.455Z,19.98
2023-03-18T02:08:02.737Z,17.27
2023-03-18T02:11:05.299Z,19.02
2023-03-18T02:14:10.860Z,19.60
2023-03-18T02:17:17.989Z,19.25
2023-03-18T02:20:38.528Z,19.57
2023-03-18T02:24:16.260Z,22.23
2023-03-18T02:27:27.900Z,20.17
2023-03-18T02:30:39.798Z,20.48
2023-03-18T02:33:44.630Z,18.63
2023-03-18T02:36:47.624Z,22.58
2023-03-18T02:39:50.690Z,16.83
2023-03-18T02:42:54.122Z,17.67
2023-03-18T02:46:27.896Z,23.92
2023-03-18T02:49:31.883Z,23.30
2023-03-18T02:52:36.364Z,21.33
2023-03-18T02:55:39.093Z,20.00
2023-03-18T02:58:44.042Z,20.40
2023-03-18T03:01:50.460Z,23.83
2023-03-18T03:04:53.244Z,20.10
2023-03-18T03:07:56.791Z,25.38
2023-03-18T03:10:59.671Z,18.95
2023-03-18T03:14:04.989Z,20.25
2023-03-18T03:17:10.886Z,20.38
2023-03-18T03:20:14.037Z,21.85
2023-03-18T03:23:17.654Z,19.83
2023-03-18T03:26:20.830Z,13.93
2023-03-18T03:29:24.591Z,16.35
2023-03-18T03:32:27.365Z,12.85
2023-03-18T03:35:30.032Z,11.23
2023-03-18T03:38:33.768Z,13.48
2023-03-18T03:41:36.389Z,10.27
2023-03-18T03:44:38.896Z,11.95
2023-03-18T03:47:42.683Z,10.00
2023-03-18T03:50:45.669Z,13.05
2023-03-18T03:53:48.766Z,12.60
2023-03-18T03:56:52.226Z,17.77
2023-03-18T03:59:56.436Z,17.23
2023-03-18T04:03:17.404Z,19.10
2023-03-18T04:06:19.911Z,11.32
2023-03-18T04:09:31.595Z,13.15
2023-03-18T04:12:34.520Z,16.20
2023-03-18T04:15:37.929Z,18.55
2023-03-18T04:18:45.583Z,14.83
2023-03-18T04:21:48.474Z,14.27
2023-03-18T04:24:52.466Z,20.13
2023-03-18T04:27:55.553Z,18.93
2023-03-18T04:30:58.444Z,14.80
2023-03-18T04:34:01.710Z,19.30
2023-03-18T04:37:04.640Z,18.77
2023-03-18T04:40:12.061Z,23.63
2023-03-18T04:43:15.388Z,12.70
2023-03-18T04:46:18.316Z,18.42
2023-03-18T04:49:24.613Z,16.53
2023-03-18T04:52:35.078Z,13.38
2023-03-18T04:55:37.709Z,17.83
2023-03-18T04:58:43.941Z,13.03
2023-03-18T05:01:51.679Z,15.57
2023-03-18T05:04:55.646Z,12.32
2023-03-18T05:07:58.520Z,13.98
2023-03-18T05:11:01.224Z,14.43
2023-03-18T05:14:04.737Z,16.15
2023-03-18T05:17:16.073Z,21.80
2023-03-18T05:20:28.303Z,17.60
2023-03-18T05:23:32.052Z,19.50
2023-03-18T05:26:36.166Z,17.25
2023-03-18T05:29:40.399Z,15.18
2023-03-18T05:32:50.349Z,13.63
2023-03-18T05:35:54.635Z,16.08
2023-03-18T05:39:03.239Z,15.18
2023-03-18T05:42:07.250Z,18.13
2023-03-18T05:45:10.215Z,14.82
2023-03-18T05:48:24.541Z,14.27
2023-03-18T05:51:32.332Z,14.05
2023-03-18T05:54:37.118Z,15.20
2023-03-18T05:57:40.413Z,13.07
2023-03-18T06:00:45.789Z,18.13
2023-03-18T06:03:48.773Z,16.07
2023-03-18T06:06:51.463Z,15.30
2023-03-18T06:09:54.623Z,15.60
2023-03-18T06:12:57.266Z,14.15
2023-03-18T06:16:00.541Z,19.27
2023-03-18T06:19:05.654Z,17.17
2023-03-18T06:22:08.423Z,18.20
2023-03-18T06:25:11.715Z,15.30
2023-03-18T06:28:16.015Z,14.40
2023-03-18T06:31:19.078Z,20.40
2023-03-18T06:34:21.786Z,15.65
2023-03-18T06:37:24.472Z,17.90
2023-03-18T06:40:27.295Z,18.17
2023-03-18T06:43:31.931Z,19.73
2023-03-18T06:46:35.925Z,16.13
2023-03-18T06:49:39.980Z,15.60
2023-03-18T06:52:51.164Z,10.57
2023-03-18T06:56:00.251Z,15.73
2023-03-18T06:59:10.942Z,13.85
2023-03-18T07:02:15.598Z,17.42
2023-03-18T07:05:20.670Z,12.03
2023-03-18T07:08:29.449Z,8.37
2023-03-18T07:11:31.996Z,8.50
2023-03-18T07:14:41.339Z,8.20
2023-03-18T07:17:44.877Z,13.73
2023-03-18T07:20:48.430Z,9.10
2023-03-18T07:23:52.191Z,7.63
2023-03-18T07:26:54.867Z,8.88
2023-03-18T07:29:57.486Z,7.45
2023-03-18T07:33:00.300Z,8.63
2023-03-18T07:36:03.490Z,11.30
2023-03-18T07:39:10.250Z,9.33
2023-03-18T07:42:12.932Z,9.32
2023-03-18T07:45:21.391Z,6.43
2023-03-18T07:48:24.070Z,7.30
2023-03-18T07:51:27.460Z,7.50
2023-03-18T07:54:30.064Z,7.30
2023-03-18T07:57:32.574Z,6.65
2023-03-18T08:00:35.736Z,6.63
2023-03-18T08:03:38.510Z,7.65
2023-03-18T08:06:41.618Z,8.90
2023-03-18T08:09:44.250Z,5.33
2023-03-18T08:12:53.222Z,9.35
2023-03-18T08:15:56.466Z,9.10
2023-03-18T08:18:59.107Z,5.80
2023-03-18T08:22:02.182Z,6.53
2023-03-18T08:25:04.967Z,5.87
2023-03-18T08:28:07.745Z,5.50
2023-03-18T08:31:10.501Z,6.90
2023-03-18T08:34:14.182Z,7.95
2023-03-18T08:37:16.779Z,8.70
2023-03-18T08:40:20.359Z,6.60
2023-03-18T08:43:22.944Z,5.80
2023-03-18T08:46:26.033Z,4.45
2023-03-18T08:49:29.362Z,7.28
2023-03-18T08:52:32.789Z,6.90
2023-03-18T08:55:40.723Z,6.33
2023-03-18T08:58:46.528Z,4.90
2023-03-18T09:01:49.271Z,4.55
2023-03-18T09:04:54.385Z,10.02
2023-03-18T09:07:58.790Z,9.93
2023-03-18T09:11:01.365Z,5.90
2023-03-18T09:14:04.515Z,5.10
2023-03-18T09:17:09.069Z,5.45
2023-03-18T09:20:13.459Z,5.07
2023-03-18T09:23:18.340Z,6.53
2023-03-18T09:26:21.219Z,8.10
2023-03-18T09:29:23.989Z,6.70
2023-03-18T09:32:26.459Z,7.97
2023-03-18T09:35:29.243Z,3.65
2023-03-18T09:38:32.501Z,5.70
2023-03-18T09:41:53.987Z,6.50
2023-03-18T09:45:00.235Z,5.22
2023-03-18T09:48:35.770Z,4.88
2023-03-18T09:51:42.410Z,5.88
2023-03-18T09:55:05.852Z,3.77
2023-03-18T09:58:27.299Z,4.33
2023-03-18T10:01:34.805Z,7.03
2023-03-18T10:04:46.401Z,5.60
2023-03-18T10:07:55.179Z,5.70
2023-03-18T10:11:04.128Z,5.90
2023-03-18T10:14:29.930Z,6.47
2023-03-18T10:17:41.502Z,5.63
2023-03-18T10:21:22.616Z,6.57
2023-03-18T10:24:26.346Z,5.10
2023-03-18T10:27:47.576Z,5.60
2023-03-18T10:30:58.374Z,5.93
2023-03-18T10:34:14.792Z,6.45
2023-03-18T10:37:36.008Z,8.50
2023-03-18T10:40:41.531Z,5.70
2023-03-18T10:43:47.899Z,4.27
2023-03-18T10:47:15.662Z,6.33
2023-03-18T10:50:36.210Z,4.38
2023-03-18T10:54:02.729Z,4.90
2023-03-18T10:57:05.371Z,6.35
2023-03-18T11:00:33.997Z,6.50
2023-03-18T11:03:50.434Z,9.90
2023-03-18T11:06:57.854Z,6.68
2023-03-18T11:10:18.137Z,6.18
2023-03-18T11:13:22.295Z,5.85
2023-03-18T11:16:38.983Z,7.83
2023-03-18T11:20:06.419Z,7.03
2023-03-18T11:23:18.109Z,5.07
2023-03-18T11:26:26.393Z,5.53
2023-03-18T11:29:34.509Z,5.13
2023-03-18T11:32:37.623Z,7.47
2023-03-18T11:35:54.279Z,8.37
2023-03-18T11:38:59.736Z,7.78
2023-03-18T11:42:19.149Z,8.00
2023-03-18T11:45:47.619Z,10.05
2023-03-18T11:48:50.787Z,7.13
2023-03-18T11:52:11.926Z,7.13
2023-03-18T11:55:51.332Z,7.30
2023-03-18T11:59:13.711Z,8.50
2023-03-18T12:02:42.793Z,6.82
2023-03-18T12:05:48.708Z,8.87
2023-03-18T12:09:12.459Z,6.23
2023-03-18T12:12:42.076Z,10.82
2023-03-18T12:15:59.784Z,6.55
2023-03-18T12:19:41.411Z,8.73
2023-03-18T12:23:03.400Z,6.07
2023-03-18T12:26:13.226Z,6.33
2023-03-18T12:29:38.902Z,9.02
2023-03-18T12:33:06.249Z,7.18
2023-03-18T12:36:17.623Z,9.15
2023-03-18T12:39:20.160Z,9.80
2023-03-18T12:42:37.390Z,8.90
2023-03-18T12:45:45.431Z,8.93
2023-03-18T12:48:58.317Z,8.23
2023-03-18T12:52:34.674Z,10.15
2023-03-18T12:55:41.939Z,9.13
2023-03-18T12:58:55.992Z,10.13
2023-03-18T13:02:19.649Z,7.32
2023-03-18T13:05:36.934Z,7.80
2023-03-18T13:08:44.766Z,8.77
2023-03-18T13:12:02.039Z,9.33
2023-03-18T13:15:33.172Z,7.10
2023-03-18T13:18:44.200Z,9.52
2023-03-18T13:21:53.714Z,8.23
2023-03-18T13:25:06.030Z,7.13
2023-03-18T13:28:14.392Z,8.37
2023-03-18T13:31:30.299Z,8.03
2023-03-18T13:34:35.843Z,8.52
2023-03-18T13:37:57.691Z,11.50
2023-03-18T13:41:22.478Z,7.60
2023-03-18T13:44:39.612Z,7.77
2023-03-18T13:47:44.335Z,8.57
2023-03-18T13:50:49.059Z,9.13
2023-03-18T13:53:59.291Z,12.10
2023-03-18T13:57:26.773Z,7.22
2023-03-18T14:00:42.949Z,8.67
2023-03-18T14:03:46.687Z,7.60
2023-03-18T14:06:55.558Z,8.80
2023-03-18T14:10:17.172Z,7.38
2023-03-18T14:13:28.373Z,8.93
2023-03-18T14:16:53.855Z,6.90
2023-03-18T14:19:57.247Z,6.30
2023-03-18T14:23:39.328Z,7.13
2023-03-18T14:26:42.637Z,6.65
2023-03-18T14:29:47.753Z,5.95
2023-03-18T14:33:01.263Z,7.40
2023-03-18T14:36:10.337Z,6.93
2023-03-18T14:39:27.989Z,6.60
2023-03-18T14:42:59.848Z,6.93
2023-03-18T14:46:14.416Z,5.57
2023-03-18T14:49:38.242Z,9.10
2023-03-18T14:52:46.176Z,4.93
2023-03-18T14:55:55.177Z,6.10
2023-03-18T14:58:59.750Z,8.70
2023-03-18T15:02:06.799Z,5.05
2023-03-18T15:05:13.496Z,6.20
2023-03-18T15:08:20.444Z,4.53
2023-03-18T15:11:24.788Z,7.50
2023-03-18T15:14:30.564Z,10.25
2023-03-18T15:17:33.230Z,8.10
2023-03-18T15:20:36.450Z,4.90
2023-03-18T15:23:42.900Z,5.60
2023-03-18T15:26:46.074Z,5.00
2023-03-18T15:29:59.679Z,5.70
2023-03-18T15:33:27.238Z,6.18
2023-03-18T15:36:30.098Z,7.33
2023-03-18T15:39:38.428Z,4.00
2023-03-18T15:42:44.402Z,4.15
2023-03-18T15:45:53.723Z,7.53
2023-03-18T15:48:57.960Z,7.63
2023-03-18T15:52:03.202Z,5.20
2023-03-18T15:55:55.442Z,7.37
2023-03-18T15:59:24.736Z,8.07
2023-03-18T16:02:30.039Z,5.60
2023-03-18T16:05:33.389Z,8.57
2023-03-18T16:08:36.010Z,7.07
2023-03-18T16:11:38.685Z,4.97
2023-03-18T16:14:44.374Z,4.22
2023-03-18T16:17:48.780Z,4.70
2023-03-18T16:20:53.984Z,4.13
2023-03-18T16:23:56.983Z,5.87
2023-03-18T16:26:59.600Z,5.17
2023-03-18T16:30:02.239Z,8.98
2023-03-18T16:33:08.672Z,8.30
2023-03-18T16:36:23.841Z,10.05
2023-03-18T16:39:33.972Z,5.57
2023-03-18T16:42:36.583Z,11.03
2023-03-18T16:45:39.229Z,7.78
2023-03-18T16:48:41.812Z,7.88
2023-03-18T16:51:44.786Z,7.70
2023-03-18T16:54:47.570Z,9.43
2023-03-18T16:57:55.864Z,8.17
2023-03-18T17:01:00.121Z,10.75
2023-03-18T17:04:16.984Z,11.65
2023-03-18T17:07:19.757Z,14.02
2023-03-18T17:10:24.976Z,16.83
2023-03-18T17:13:30.042Z,27.87
2023-03-18T17:16:32.908Z,28.40
2023-03-18T17:19:36.341Z,40.78
2023-03-18T17:22:38.865Z,64.13
2023-03-18T17:25:47.143Z,70.53
2023-03-18T17:28:50.689Z,55.47
2023-03-18T17:31:54.717Z,46.13
2023-03-18T17:34:57.438Z,33.50
2023-03-18T17:38:00.811Z,31.08
2023-03-18T17:41:12.462Z,23.83
2023-03-18T17:44:28.390Z,30.57
2023-03-18T17:47:32.838Z,56.40
2023-03-18T17:50:35.457Z,61.42
2023-03-18T17:53:46.439Z,46.03
2023-03-18T17:56:48.960Z,45.53
2023-03-18T17:59:52.679Z,49.43
2023-03-18T18:02:55.355Z,50.40
2023-03-18T18:05:59.267Z,36.58
2023-03-18T18:09:02.552Z,28.80
2023-03-18T18:12:05.612Z,30.97
2023-03-18T18:15:18.347Z,24.10
2023-03-18T18:18:25.908Z,18.88
2023-03-18T18:21:28.612Z,37.83
2023-03-18T18:24:33.448Z,47.40
2023-03-18T18:27:36.572Z,23.57
2023-03-18T18:30:39.962Z,18.57
2023-03-18T18:33:45.765Z,16.30
2023-03-18T18:36:49.769Z,18.52
2023-03-18T18:39:52.555Z,19.95
2023-03-18T18:42:55.437Z,15.23
2023-03-18T18:45:59.033Z,16.97
2023-03-18T18:49:01.784Z,13.65
2023-03-18T18:52:06.219Z,16.15
2023-03-18T18:55:11.457Z,19.60
2023-03-18T18:58:17.763Z,17.33
2023-03-18T19:01:20.866Z,13.73
2023-03-18T19:04:25.021Z,16.42
2023-03-18T19:07:29.428Z,17.10
2023-03-18T19:10:32.366Z,18.33
2023-03-18T19:13:37.786Z,20.23
2023-03-18T19:16:41.152Z,19.00
2023-03-18T19:19:45.967Z,15.68
2023-03-18T19:22:50.694Z,14.70
2023-03-18T19:25:53.664Z,13.50
2023-03-18T19:28:59.429Z,14.27
2023-03-18T19:32:04.167Z,13.33
2023-03-18T19:35:07.436Z,16.45
2023-03-18T19:38:16.338Z,22.80
2023-03-18T19:41:20.181Z,17.65
2023-03-18T19:44:25.601Z,17.57
2023-03-18T19:47:31.286Z,17.67
2023-03-18T19:50:34.119Z,21.70
2023-03-18T19:53:37.446Z,18.23
2023-03-18T19:56:40.616Z,14.35
2023-03-18T19:59:45.752Z,16.17
2023-03-18T20:02:53.254Z,16.03
2023-03-18T20:05:56.111Z,16.10
2023-03-18T20:08:59.749Z,17.65
2023-03-18T20:12:05.911Z,14.00
2023-03-18T20:15:15.989Z,13.57
2023-03-18T20:18:18.854Z,16.77
2023-03-18T20:21:27.628Z,18.63
2023-03-18T20:24:30.912Z,15.10
2023-03-18T20:27:33.775Z,15.60
2023-03-18T20:30:39.603Z,16.17
2023-03-18T20:33:42.508Z,18.43
2023-03-18T20:36:45.749Z,22.52
2023-03-18T20:39:50.469Z,23.25
2023-03-18T20:42:54.436Z,15.73
2023-03-18T20:46:00.027Z,18.17
2023-03-18T20:49:02.769Z,20.67
2023-03-18T20:52:05.774Z,15.77
2023-03-18T20:55:22.682Z,16.30
2023-03-18T20:58:28.204Z,14.65
2023-03-18T21:01:31.769Z,12.67
2023-03-18T21:04:34.463Z,13.50
2023-03-18T21:07:37.272Z,16.63
2023-03-18T21:10:40.046Z,12.70
2023-03-18T21:13:43.625Z,12.00
2023-03-18T21:16:46.260Z,13.97
2023-03-18T21:19:50.168Z,15.90
2023-03-18T21:22:54.403Z,15.07
2023-03-18T21:25:57.552Z,11.75
2023-03-18T21:29:00.229Z,14.75
2023-03-18T21:32:04.051Z,12.67
2023-03-18T21:35:07.697Z,13.53
2023-03-18T21:38:10.222Z,11.77
2023-03-18T21:41:28.074Z,14.25
2023-03-18T21:44:30.586Z,13.85
2023-03-18T21:47:33.073Z,11.10
2023-03-18T21:50:36.213Z,11.50
2023-03-18T21:53:39.215Z,15.02
2023-03-18T21:56:41.725Z,13.93
2023-03-18T21:59:46.023Z,15.20
2023-03-18T22:02:48.882Z,12.73
2023-03-18T22:05:52.632Z,16.83
2023-03-18T22:08:57.380Z,18.77
2023-03-18T22:12:01.463Z,14.02
2023-03-18T22:15:04.204Z,16.33
2023-03-18T22:18:07.859Z,15.90
2023-03-18T22:21:24.358Z,16.83
2023-03-18T22:24:26.835Z,16.88
2023-03-18T22:27:31.024Z,13.98
2023-03-18T22:30:34.717Z,19.48
2023-03-18T22:33:37.150Z,18.63
2023-03-18T22:36:39.671Z,17.23
2023-03-18T22:39:43.130Z,17.63
2023-03-18T22:42:51.853Z,16.30
2023-03-18T22:45:54.658Z,18.52
2023-03-18T22:48:57.245Z,24.03
2023-03-18T22:52:00.163Z,22.60
2023-03-18T22:55:07.848Z,23.73
2023-03-18T22:58:22.723Z,27.23
2023-03-18T23:01:29.839Z,23.40
2023-03-18T23:04:32.733Z,18.83
2023-03-18T23:07:35.423Z,19.63
2023-03-18T23:10:38.079Z,21.30
2023-03-18T23:13:47.572Z,19.92
2023-03-18T23:16:50.077Z,21.95
2023-03-18T23:19:54.164Z,21.00
2023-03-18T23:22:56.868Z,18.37
2023-03-18T23:26:00.014Z,21.25
2023-03-18T23:29:02.851Z,19.50
2023-03-18T23:32:06.230Z,18.65
2023-03-18T23:35:09.585Z,22.77
2023-03-18T23:38:12.214Z,28.73
2023-03-18T23:41:14.989Z,18.88
2023-03-18T23:44:17.846Z,25.48
2023-03-18T23:47:20.536Z,22.98
2023-03-18T23:50:23.761Z,27.20
2023-03-18T23:53:26.457Z,23.33
2023-03-18T23:56:29.026Z,24.55
2023-03-18T23:59:32.508Z,19.23
